Time;durP1;ratioP1;P1;durP2;ratioP2;P2;SDS_P1;SDS_P2;PMS_P1;PMS_P2;Temp;Humidity;BMP_temperature;BMP_pressure;BME280_temperature;BME280_humidity;BME280_pressure;Samples;Min_cycle;Max_cycle;Signal;HPM_P1;HPM_P2
2021/11/17 02:27:25;;;;;;;76.88;28.05;;;;;;;6.42;100.00;102038.47;5005989;28;20473;-74
2021/11/17 02:29:57;;;;;;;89.28;28.88;;;;;;;6.40;100.00;102041.03;5011055;28;20026;-73
2021/11/17 02:33:14;;;;;;;75.68;28.73;;;;;;;6.39;100.00;102039.22;5011696;28;20393;-73
2021/11/17 02:36:01;;;;;;;81.25;27.52;;;;;;;6.38;100.00;102032.19;4979604;28;20545;-72
2021/11/17 02:38:37;;;;;;;81.75;28.60;;;;;;;6.37;100.00;102042.56;5009367;28;20481;-73
2021/11/17 02:41:17;;;;;;;80.50;28.40;;;;;;;6.41;100.00;102047.13;5011361;28;20026;-72
2021/11/17 02:44:16;;;;;;;74.80;28.25;;;;;;;6.42;100.00;102054.16;5015917;28;20038;-72
2021/11/17 02:46:53;;;;;;;85.32;28.88;;;;;;;6.44;100.00;102051.63;5014270;28;20157;-72
2021/11/17 02:49:31;;;;;;;79.70;28.40;;;;;;;6.45;100.00;102048.22;5013209;28;20122;-73
2021/11/17 02:52:35;;;;;;;78.30;28.33;;;;;;;6.44;100.00;102046.41;5015054;28;20037;-73
2021/11/17 02:55:03;;;;;;;74.90;27.73;;;;;;;6.44;100.00;102036.84;5010472;28;20100;-73
2021/11/17 02:57:58;;;;;;;79.63;28.67;;;;;;;6.41;100.00;102034.94;5013793;28;20033;-72
2021/11/17 03:00:46;;;;;;;84.88;29.85;;;;;;;6.45;100.00;102029.91;5013372;28;20129;-72
2021/11/17 03:03:20;;;;;;;91.22;29.33;;;;;;;6.45;100.00;102025.56;5009502;28;20109;-72
2021/11/17 03:05:45;;;;;;;81.50;29.35;;;;;;;6.45;100.00;102025.56;5014059;28;20470;-73
2021/11/17 03:08:42;;;;;;;77.43;28.50;;;;;;;6.50;100.00;102026.72;5013755;28;20080;-72
2021/11/17 03:11:17;;;;;;;78.93;29.95;;;;;;;6.52;100.00;102016.31;5019548;28;20089;-72
2021/11/17 03:14:13;;;;;;;78.50;28.83;;;;;;;6.48;100.00;102011.75;5013023;28;20026;-73
2021/11/17 03:17:16;;;;;;;75.80;29.58;;;;;;;6.47;100.00;102010.88;5011094;28;20036;-73
2021/11/17 03:20:08;;;;;;;75.97;28.73;;;;;;;6.49;100.00;102018.78;5009809;28;20138;-74
2021/11/17 03:22:45;;;;;;;82.90;29.17;;;;;;;6.53;100.00;102025.97;5014171;28;20030;-71
2021/11/17 03:25:32;;;;;;;74.20;28.85;;;;;;;6.53;100.00;102010.28;5008258;28;20038;-72
2021/11/17 03:28:26;;;;;;;81.82;28.05;;;;;;;6.56;100.00;102000.84;5012198;28;20030;-73
2021/11/17 03:31:05;;;;;;;82.45;29.02;;;;;;;6.57;100.00;102004.41;4976890;28;20501;-73
2021/11/17 03:33:45;;;;;;;74.63;28.75;;;;;;;6.55;100.00;101998.16;5014822;28;20028;-72
2021/11/17 03:36:30;;;;;;;78.18;28.05;;;;;;;6.58;100.00;101995.75;5011564;28;20030;-73
2021/11/17 03:39:36;;;;;;;73.18;28.02;;;;;;;6.56;100.00;101984.28;5014204;28;20045;-73
2021/11/17 03:42:28;;;;;;;83.22;29.27;;;;;;;6.54;100.00;101980.72;4984226;28;20138;-73
2021/11/17 03:45:12;;;;;;;74.22;26.98;;;;;;;6.56;100.00;101984.28;5013070;28;20078;-73
2021/11/17 03:48:02;;;;;;;;;;;;;;;6.56;100.00;101985.16;5012794;28;20390;-73
2021/11/17 03:50:48;;;;;;;70.50;26.83;;;;;;;6.55;100.00;101988.63;5012340;28;19922;-73
2021/11/17 03:53:33;;;;;;;71.82;27.58;;;;;;;6.61;100.00;101976.69;5011413;28;20362;-73
2021/11/17 03:56:13;;;;;;;72.75;26.92;;;;;;;6.57;100.00;101981.75;5012014;28;20029;-72
2021/11/17 03:59:03;;;;;;;67.57;25.67;;;;;;;6.57;100.00;101975.63;5009026;28;20033;-74
2021/11/17 04:02:05;;;;;;;76.65;26.52;;;;;;;6.58;100.00;101982.66;5010099;28;20030;-72
2021/11/17 04:04:51;;;;;;;86.03;29.95;;;;;;;6.57;100.00;101975.63;4975700;28;20088;-72
2021/11/17 04:07:42;;;;;;;69.57;25.75;;;;;;;6.59;100.00;101973.97;5013286;28;20026;-73
2021/11/17 04:10:30;;;;;;;71.78;26.05;;;;;;;6.58;100.00;101974.81;5013226;28;20470;-73
2021/11/17 04:13:23;;;;;;;77.28;25.98;;;;;;;6.56;100.00;101979.06;5011943;28;20033;-71
2021/11/17 04:16:16;;;;;;;75.28;27.63;;;;;;;6.60;100.00;101986.25;5028603;28;20030;-72
2021/11/17 04:19:14;;;;;;;72.88;27.15;;;;;;;6.63;100.00;101975.03;5009047;28;20050;-73
2021/11/17 04:21:57;;;;;;;74.40;26.60;;;;;;;6.65;100.00;101984.75;4999282;28;20041;-73
2021/11/17 04:24:36;;;;;;;81.43;29.65;;;;;;;6.69;100.00;101975.38;5010591;28;20466;-72
2021/11/17 04:27:16;;;;;;;78.72;27.20;;;;;;;6.70;100.00;101962.34;5010410;28;20393;-72
2021/11/17 04:30:15;;;;;;;81.68;27.73;;;;;;;6.72;100.00;101971.16;5012576;28;20477;-73
2021/11/17 04:33:12;;;;;;;70.65;27.48;;;;;;;6.75;100.00;101976.56;5013786;28;20493;-72
2021/11/17 04:36:01;;;;;;;75.03;28.55;;;;;;;6.77;100.00;101979.25;5010030;28;20147;-72
2021/11/17 04:38:51;;;;;;;79.90;28.80;;;;;;;6.77;100.00;101979.25;5009397;28;20022;-72
2021/11/17 04:41:32;;;;;;;85.20;29.77;;;;;;;6.81;100.00;101982.91;5013261;28;20044;-71
2021/11/17 04:44:18;;;;;;;85.70;30.48;;;;;;;6.78;100.00;101985.38;5012454;28;20076;-73
2021/11/17 04:47:03;;;;;;;86.70;31.13;;;;;;;6.80;100.00;101989.88;5012513;28;20390;-72
2021/11/17 04:49:47;;;;;;;92.68;30.45;;;;;;;6.82;100.00;101984.72;5010713;28;20018;-74
2021/11/17 04:52:24;;;;;;;90.20;31.77;;;;;;;6.85;100.00;101983.16;5008392;28;20025;-72
2021/11/17 04:55:08;;;;;;;86.13;31.30;;;;;;;6.85;100.00;101987.47;4994859;28;20044;-71
2021/11/17 04:58:12;;;;;;;86.70;30.25;;;;;;;6.84;100.00;101985.69;5004806;28;20053;-73
2021/11/17 05:01:04;;;;;;;99.32;32.83;;;;;;;6.84;100.00;101985.69;5009343;28;20087;-73
2021/11/17 05:03:48;;;;;;;86.22;31.10;;;;;;;6.85;100.00;101991.00;5010911;28;20412;-72
2021/11/17 05:06:39;;;;;;;109.13;33.83;;;;;;;6.88;100.00;101988.53;5012397;28;20026;-72
2021/11/17 05:09:07;;;;;;;86.50;32.67;;;;;;;6.91;100.00;101987.78;5009965;28;20125;-72
2021/11/17 05:11:53;;;;;;;94.82;32.47;;;;;;;6.94;100.00;101987.06;5013395;28;20034;-73
2021/11/17 05:14:33;;;;;;;95.25;32.08;;;;;;;6.98;100.00;101982.03;5006682;28;20030;-73
2021/11/17 05:17:13;;;;;;;93.53;32.65;;;;;;;6.97;100.00;101980.22;5008409;28;20026;-72
2021/11/17 05:19:57;;;;;;;98.20;35.00;;;;;;;7.03;100.00;101982.28;5007966;28;20049;-73
2021/11/17 05:22:38;;;;;;;103.07;34.50;;;;;;;7.03;100.00;101977.03;5012109;28;20051;-72
2021/11/17 05:25:13;;;;;;;94.30;33.63;;;;;;;7.03;100.00;101983.16;5010580;28;20072;-72
2021/11/17 05:27:50;;;;;;;95.90;32.88;;;;;;;7.05;100.00;101997.25;5011868;28;20363;-73
2021/11/17 05:30:24;;;;;;;98.50;35.17;;;;;;;7.07;100.00;101987.72;5010485;28;20095;-72
2021/11/17 05:32:50;;;;;;;94.35;34.42;;;;;;;7.09;100.00;101983.47;5008908;28;20083;-73
2021/11/17 05:35:45;;;;;;;92.22;34.20;;;;;;;7.16;100.00;101984.69;5012220;28;20433;-73
2021/11/17 05:38:38;;;;;;;98.43;34.45;;;;;;;7.18;100.00;101987.38;5006340;28;20026;-73
2021/11/17 05:41:40;;;;;;;96.82;35.08;;;;;;;7.24;100.00;101992.88;4989785;28;20124;-72
2021/11/17 05:44:17;;;;;;;100.30;35.70;;;;;;;7.24;100.00;101987.66;5012263;28;20045;-71
2021/11/17 05:46:46;;;;;;;95.82;36.65;;;;;;;7.27;100.00;101987.81;5010506;28;20040;-73
2021/11/17 05:49:26;;;;;;;97.35;35.40;;;;;;;7.28;100.00;101994.81;5012303;28;20473;-71
2021/11/17 05:52:11;;;;;;;103.60;36.22;;;;;;;7.32;100.00;101994.16;5010710;28;20933;-72
2021/11/17 05:54:46;;;;;;;99.38;37.35;;;;;;;7.33;100.00;102000.31;5008862;28;20112;-71
2021/11/17 05:57:53;;;;;;;99.90;35.80;;;;;;;7.34;100.00;101989.91;4989703;28;20022;-72
2021/11/17 06:00:46;;;;;;;96.40;36.03;;;;;;;7.37;100.00;102004.88;5006236;28;20037;-72
2021/11/17 06:03:39;;;;;;;92.72;34.92;;;;;;;7.38;100.00;101997.09;5006114;28;20026;-72
2021/11/17 06:06:04;;;;;;;98.50;36.08;;;;;;;7.42;100.00;101993.78;5025872;28;20033;-72
2021/11/17 06:08:29;;;;;;;107.93;39.07;;;;;;;7.47;100.00;101985.25;5011701;28;20041;-73
2021/11/17 06:10:58;;;;;;;103.33;36.37;;;;;;;7.49;100.00;101986.19;5011074;28;20295;-72
2021/11/17 06:13:24;;;;;;;96.50;36.20;;;;;;;7.50;100.00;101993.25;5011847;28;20316;-73
2021/11/17 06:15:50;;;;;;;114.60;37.63;;;;;;;7.52;100.00;101994.22;5009265;28;20036;-72
2021/11/17 06:18:20;;;;;;;92.32;34.20;;;;;;;7.53;100.00;101990.78;5012726;28;20103;-72
2021/11/17 06:20:47;;;;;;;105.18;37.35;;;;;;;7.54;100.00;101987.31;5029364;28;20146;-72
2021/11/17 06:23:26;;;;;;;109.95;39.08;;;;;;;7.56;100.00;101991.81;5012409;28;20025;-74
2021/11/17 06:25:55;;;;;;;98.38;34.33;;;;;;;7.58;100.00;101984.94;5014428;28;20398;-72
2021/11/17 06:28:23;;;;;;;100.80;35.95;;;;;;;7.66;100.00;101987.00;5027847;28;20030;-72
2021/11/17 06:30:51;;;;;;;109.78;37.03;;;;;;;7.66;100.00;101982.66;5012113;28;20442;-72
2021/11/17 06:33:16;;;;;;;108.20;37.20;;;;;;;7.65;100.00;101990.44;5015785;28;20490;-72
2021/11/17 06:35:41;;;;;;;111.95;36.60;;;;;;;7.69;100.00;102000.25;5015036;28;20093;-74
2021/11/17 06:38:09;;;;;;;116.50;38.35;;;;;;;7.70;100.00;101997.69;5014395;28;20036;-70
2021/11/17 06:40:37;;;;;;;114.03;36.40;;;;;;;7.73;100.00;101997.88;5013953;28;20505;-73
2021/11/17 06:43:03;;;;;;;104.63;36.20;;;;;;;7.75;100.00;101996.19;5015629;28;20037;-72
2021/11/17 06:45:47;;;;;;;105.80;35.70;;;;;;;7.76;100.00;102000.63;5015331;28;20025;-72
2021/11/17 06:48:13;;;;;;;102.07;36.42;;;;;;;7.76;100.00;101994.50;5013195;28;20018;-73
2021/11/17 06:50:42;;;;;;;107.65;38.67;;;;;;;7.75;100.00;102004.06;5014861;28;20033;-73
2021/11/17 06:53:09;;;;;;;116.07;39.90;;;;;;;7.76;100.00;102005.84;5014976;28;20057;-74
2021/11/17 06:55:34;;;;;;;120.63;40.97;;;;;;;7.78;100.00;102012.91;5015829;28;20030;-71
2021/11/17 06:58:00;;;;;;;111.93;38.38;;;;;;;7.79;100.00;102009.47;5012463;28;20052;-72
2021/11/17 07:00:28;;;;;;;120.35;38.08;;;;;;;7.81;100.00;102018.28;5014011;28;20030;-70
2021/11/17 07:02:54;;;;;;;122.82;39.00;;;;;;;7.80;100.00;102022.63;5014595;28;20049;-73
2021/11/17 07:05:21;;;;;;;123.10;39.55;;;;;;;7.79;100.00;102031.31;5014093;28;20072;-73
2021/11/17 07:07:47;;;;;;;120.82;38.20;;;;;;;7.84;100.00;102026.28;5015290;28;20494;-72
2021/11/17 07:10:15;;;;;;;125.60;40.05;;;;;;;7.88;100.00;102034.38;5012684;28;20038;-72
2021/11/17 07:12:41;;;;;;;126.53;38.40;;;;;;;7.87;100.00;102047.41;5013823;28;20477;-72
2021/11/17 07:15:08;;;;;;;127.00;40.17;;;;;;;7.83;100.00;102035.88;5011804;28;20029;-72
2021/11/17 07:17:34;;;;;;;121.30;36.72;;;;;;;7.85;100.00;102033.31;5014237;28;20038;-71
2021/11/17 07:19:59;;;;;;;122.50;38.78;;;;;;;7.88;100.00;102036.06;5014436;28;20046;-72
2021/11/17 07:22:25;;;;;;;102.43;35.03;;;;;;;7.92;100.00;102032.78;5013108;28;20026;-73
2021/11/17 07:24:50;;;;;;;114.20;36.15;;;;;;;7.96;100.00;102041.69;5014115;28;20045;-72
2021/11/17 07:27:22;;;;;;;122.75;37.78;;;;;;;7.98;100.00;102045.28;5011582;28;20032;-71
2021/11/17 07:29:53;;;;;;;117.38;37.00;;;;;;;7.99;100.00;102040.13;5013469;28;20500;-73
2021/11/17 07:32:21;;;;;;;122.03;36.97;;;;;;;8.02;100.00;102042.88;5011840;28;20117;-76
2021/11/17 07:34:47;;;;;;;125.72;37.78;;;;;;;8.00;100.00;102044.50;5013588;28;20370;-75
2021/11/17 07:37:12;;;;;;;124.05;38.13;;;;;;;8.02;100.00;102055.97;5015224;28;20057;-75
2021/11/17 07:39:38;;;;;;;130.13;39.10;;;;;;;8.03;100.00;102056.84;5015831;28;20065;-75
2021/11/17 07:42:04;;;;;;;122.45;37.65;;;;;;;8.08;100.00;102058.91;5015937;28;20468;-74
2021/11/17 07:44:29;;;;;;;121.28;37.45;;;;;;;8.07;100.00;102053.56;5014755;28;20030;-72
2021/11/17 07:46:57;;;;;;;127.82;37.00;;;;;;;8.07;100.00;102054.47;5014305;28;20028;-72
2021/11/17 07:49:24;;;;;;;133.68;39.03;;;;;;;8.06;100.00;102052.66;5013120;28;20330;-73
2021/11/17 07:51:51;;;;;;;136.63;38.50;;;;;;;8.06;100.00;102057.91;5014477;28;20029;-74
2021/11/17 07:54:19;;;;;;;150.90;40.40;;;;;;;8.09;100.00;102078.13;5024843;28;20029;-72
2021/11/17 07:56:45;;;;;;;143.23;38.67;;;;;;;8.10;100.00;102078.19;5008689;28;20026;-73
2021/11/17 07:59:15;;;;;;;135.50;38.80;;;;;;;8.15;100.00;102080.13;5013146;28;20083;-73
2021/11/17 08:01:45;;;;;;;133.88;40.13;;;;;;;8.18;100.00;102085.50;5013553;28;20033;-73
2021/11/17 08:04:14;;;;;;;131.90;38.22;;;;;;;8.24;100.00;102085.81;5012396;28;20033;-73
2021/11/17 08:06:39;;;;;;;139.50;39.10;;;;;;;8.33;100.00;102086.22;5012313;28;20117;-72
2021/11/17 08:09:07;;;;;;;138.30;40.40;;;;;;;8.37;100.00;102085.53;5013523;28;20410;-72
2021/11/17 08:11:32;;;;;;;140.13;38.88;;;;;;;8.40;100.00;102083.06;5012302;28;20069;-73
2021/11/17 08:13:58;;;;;;;131.35;39.85;;;;;;;8.42;100.00;102085.75;5013383;28;20064;-74
2021/11/17 08:16:23;;;;;;;136.35;39.95;;;;;;;8.42;100.00;102097.16;5012094;28;20205;-73
2021/11/17 08:18:48;;;;;;;138.20;40.80;;;;;;;8.41;100.00;102091.81;5014269;28;20052;-73
2021/11/17 08:21:15;;;;;;;131.68;38.67;;;;;;;8.40;100.00;102092.66;5014124;28;20059;-75
2021/11/17 08:23:40;;;;;;;143.07;39.78;;;;;;;8.40;100.00;102083.06;5014391;28;20026;-73
2021/11/17 08:26:07;;;;;;;134.82;39.08;;;;;;;8.38;100.00;102074.25;5012029;28;20569;-73
2021/11/17 08:28:33;;;;;;;138.90;38.15;;;;;;;8.41;100.00;102082.22;5011931;28;20025;-73
2021/11/17 08:30:58;;;;;;;145.60;38.45;;;;;;;8.43;100.00;102091.06;5011255;28;20026;-72
2021/11/17 08:33:24;;;;;;;140.32;39.88;;;;;;;8.43;100.00;102093.69;5011561;28;20044;-73
2021/11/17 08:35:49;;;;;;;166.85;41.42;;;;;;;8.43;100.00;102098.03;5013114;28;20033;-74
2021/11/17 08:38:19;;;;;;;137.40;39.30;;;;;;;8.46;100.00;102094.69;5012938;28;20029;-73
2021/11/17 08:40:52;;;;;;;130.77;39.03;;;;;;;8.49;100.00;102100.06;5014771;28;20474;-74
2021/11/17 08:43:19;;;;;;;148.32;42.58;;;;;;;8.48;100.00;102093.03;5012050;28;20084;-73
2021/11/17 08:45:45;;;;;;;154.73;41.35;;;;;;;8.48;100.00;102098.25;5012631;28;20137;-72
2021/11/17 08:48:12;;;;;;;155.88;42.97;;;;;;;8.48;100.00;102114.94;5012982;28;20037;-72
2021/11/17 08:50:39;;;;;;;143.68;39.00;;;;;;;8.48;100.00;102108.75;5011900;28;20029;-72
2021/11/17 08:53:07;;;;;;;141.32;39.67;;;;;;;8.53;100.00;102108.16;5012703;28;20048;-73
2021/11/17 08:55:34;;;;;;;127.15;38.95;;;;;;;8.55;100.00;102111.75;5009687;28;20057;-74
2021/11/17 08:58:04;;;;;;;129.05;38.92;;;;;;;8.58;100.00;102121.47;5012049;28;20437;-72
2021/11/17 09:00:29;;;;;;;141.55;39.65;;;;;;;8.60;100.00;102122.47;5013345;28;20038;-74
2021/11/17 09:03:00;;;;;;;155.27;40.75;;;;;;;8.69;100.00;102130.72;5011877;28;20037;-78
2021/11/17 09:05:30;;;;;;;143.55;38.75;;;;;;;8.73;100.00;102124.78;5020378;28;20482;-77
2021/11/17 09:07:58;;;;;;;141.57;38.63;;;;;;;8.77;100.00;102124.09;5016162;28;20050;-78
2021/11/17 09:10:29;;;;;;;142.80;39.45;;;;;;;8.86;100.00;102127.97;5013957;28;20484;-77
2021/11/17 09:12:55;;;;;;;157.27;41.22;;;;;;;8.93;100.00;102128.28;5012420;28;20429;-75
2021/11/17 09:15:23;;;;;;;147.80;39.55;;;;;;;8.99;100.00;102125.03;5014062;28;20461;-76
2021/11/17 09:17:49;;;;;;;141.52;39.15;;;;;;;9.08;100.00;102125.44;5014146;28;20528;-77
2021/11/17 09:20:18;;;;;;;121.43;36.10;;;;;;;9.22;100.00;102127.78;5014059;28;20413;-76
2021/11/17 09:22:44;;;;;;;139.57;38.13;;;;;;;9.34;100.00;102138.78;5012364;28;20076;-78
2021/11/17 09:25:10;;;;;;;141.57;37.70;;;;;;;9.44;100.00;102146.25;5011708;28;20041;-77
2021/11/17 09:27:37;;;;;;;111.40;32.42;;;;;;;9.52;100.00;102143.03;5012366;28;20022;-78
2021/11/17 09:30:07;;;;;;;109.53;33.33;;;;;;;9.57;100.00;102142.38;5012903;28;20038;-78
2021/11/17 09:32:33;;;;;;;102.28;32.05;;;;;;;9.63;100.00;102147.03;5012900;28;20028;-78
2021/11/17 09:35:05;;;;;;;96.60;29.65;;;;;;;9.70;100.00;102143.81;5011100;28;20034;-77
2021/11/17 09:37:30;;;;;;;85.50;27.73;;;;;;;9.76;100.00;102149.28;5011568;28;20389;-78
2021/11/17 09:39:56;;;;;;;75.03;26.42;;;;;;;9.83;100.00;102152.19;5012618;28;20037;-77
2021/11/17 09:42:23;;;;;;;66.90;22.88;;;;;;;9.90;100.00;102154.22;5012634;28;20037;-78
2021/11/17 09:44:48;;;;;;;50.83;18.83;;;;;;;9.95;100.00;102161.44;4996902;28;20030;-77
2021/11/17 09:47:17;;;;;;;42.15;12.25;;;;;;;9.97;100.00;102164.19;5012527;28;20046;-77
2021/11/17 09:49:52;;;;;;;30.95;9.23;;;;;;;10.03;100.00;102159.16;5013238;28;20068;-77
2021/11/17 09:52:24;;;;;;;20.90;6.43;;;;;;;10.09;100.00;102159.41;5013206;28;20026;-78
2021/11/17 09:55:29;;;;;;;22.77;6.07;;;;;;;10.15;100.00;102164.00;5011917;28;20054;-78
2021/11/17 09:58:04;;;;;;;15.70;4.55;;;;;;;10.23;100.00;102172.22;5029297;28;20474;-79
2021/11/17 10:00:50;;;;;;;16.67;5.57;;;;;;;10.38;100.00;102167.56;5012471;28;20030;-78
2021/11/17 10:03:18;;;;;;;20.48;4.03;;;;;;;10.48;100.00;102170.56;5014298;28;20065;-78
2021/11/17 10:11:34;;;;;;;17.02;4.03;;;;;;;10.71;100.00;102163.53;5008476;28;20095;-78
2021/11/17 10:14:11;;;;;;;14.85;2.88;;;;;;;10.77;100.00;102171.63;5006902;28;20036;-76
2021/11/17 10:16:37;;;;;;;14.10;2.65;;;;;;;11.10;100.00;102164.06;5013047;28;20030;-78
2021/11/17 10:19:25;;;;;;;15.00;2.90;;;;;;;11.65;100.00;102158.91;5013618;28;20046;-77
2021/11/17 10:22:07;;;;;;;14.75;3.15;;;;;;;12.10;98.48;102161.28;5011768;28;20453;-76
2021/11/17 10:25:03;;;;;;;16.15;2.63;;;;;;;12.32;94.18;102165.47;5010054;28;20437;-78
2021/11/17 10:27:31;;;;;;;20.73;3.30;;;;;;;12.37;93.61;102160.38;5027069;28;20018;-77
2021/11/17 10:30:09;;;;;;;18.70;2.95;;;;;;;12.78;91.97;102168.59;5013555;28;20034;-77
2021/11/17 10:33:05;;;;;;;16.15;3.83;;;;;;;13.43;88.73;102165.13;5010468;28;20038;-76
2021/11/17 10:35:34;;;;;;;19.63;3.35;;;;;;;13.62;84.36;102160.31;5000453;28;20334;-77
2021/11/17 10:38:03;;;;;;;18.48;3.30;;;;;;;13.78;81.79;102158.91;5011875;28;20544;-77
2021/11/17 10:40:32;;;;;;;17.77;3.10;;;;;;;14.12;81.95;102163.28;5013639;28;20042;-77
2021/11/17 10:43:07;;;;;;;19.98;3.30;;;;;;;14.39;78.05;102151.53;5011365;28;20041;-76
2021/11/17 10:45:39;;;;;;;24.40;3.20;;;;;;;14.11;77.41;102161.47;5007078;28;20033;-72
2021/11/17 10:48:17;;;;;;;23.40;3.08;;;;;;;14.46;77.67;102165.75;5027110;28;20088;-72
2021/11/17 10:50:43;;;;;;;20.70;3.15;;;;;;;14.91;76.13;102161.44;5012437;28;20541;-71
2021/11/17 10:53:14;;;;;;;23.30;4.00;;;;;;;15.07;72.24;102157.31;5011990;28;20164;-73
2021/11/17 10:55:54;;;;;;;12.07;2.88;;;;;;;14.70;71.91;102159.25;5011988;28;20389;-72
2021/11/17 10:58:25;;;;;;;22.67;3.47;;;;;;;14.38;72.99;102160.31;5005224;28;20492;-72
2021/11/17 11:00:58;;;;;;;17.25;3.42;;;;;;;14.47;71.07;102155.22;5011318;28;20021;-72
2021/11/17 11:03:24;;;;;;;17.67;3.08;;;;;;;14.32;72.78;102160.16;5012013;28;20331;-73
2021/11/17 11:05:57;;;;;;;15.43;3.55;;;;;;;13.79;72.95;102169.53;5013557;28;20390;-72
2021/11/17 11:08:44;;;;;;;17.08;3.30;;;;;;;13.81;74.13;102162.53;5015936;28;20046;-72
2021/11/17 11:11:10;;;;;;;20.25;3.70;;;;;;;13.90;73.75;102161.84;5016901;28;20030;-73
2021/11/17 11:13:50;;;;;;;19.98;3.92;;;;;;;13.78;74.24;102173.06;5015181;28;20030;-73
2021/11/17 11:16:15;;;;;;;24.80;3.53;;;;;;;13.51;74.27;102164.41;5015901;28;20484;-73
2021/11/17 11:18:43;;;;;;;15.73;3.50;;;;;;;12.91;74.37;102167.19;5013732;28;20136;-72
2021/11/17 11:21:11;;;;;;;29.92;4.93;;;;;;;12.76;76.28;102169.41;5015372;28;20033;-69
2021/11/17 11:23:57;;;;;;;22.17;3.70;;;;;;;12.68;76.20;102171.81;5015625;28;20446;-71
2021/11/17 11:26:25;;;;;;;21.15;3.47;;;;;;;12.84;76.20;102165.22;5029965;28;20033;-72
2021/11/17 11:28:59;;;;;;;20.40;3.53;;;;;;;12.82;76.72;102164.31;5013759;28;20100;-72
2021/11/17 11:31:52;;;;;;;23.35;3.65;;;;;;;12.43;78.13;102168.44;5013979;28;20038;-72
2021/11/17 11:34:39;;;;;;;18.43;3.30;;;;;;;12.29;79.04;102167.16;5025545;28;20555;-73
2021/11/17 11:37:25;;;;;;;18.85;3.20;;;;;;;12.12;80.31;102178.06;5016051;28;20385;-79
2021/11/17 11:39:56;;;;;;;18.42;3.00;;;;;;;12.26;81.01;102182.88;4986537;28;20048;-80
2021/11/17 11:42:31;;;;;;;15.95;3.38;;;;;;;12.56;80.08;102184.66;5016564;28;20038;-77
2021/11/17 11:45:01;;;;;;;24.35;3.85;;;;;;;12.75;80.32;102188.72;5014941;28;20041;-74
2021/11/17 11:47:33;;;;;;;20.15;3.40;;;;;;;12.64;81.01;102191.06;5014030;28;20033;-74
2021/11/17 11:50:23;;;;;;;21.42;3.65;;;;;;;12.60;81.91;102202.38;5016486;28;20032;-80
2021/11/17 11:53:01;;;;;;;12.23;2.92;;;;;;;12.54;82.10;102204.84;5016877;28;20038;-78
2021/11/17 11:55:47;;;;;;;10.80;2.67;;;;;;;12.36;82.14;102200.78;5012187;28;20052;-79
2021/11/17 11:58:18;;;;;;;17.98;3.08;;;;;;;12.23;80.87;102193.34;5015020;28;20056;-79
2021/11/17 12:00:46;;;;;;;14.02;2.90;;;;;;;12.25;81.15;102207.47;5015271;28;20038;-79
2021/11/17 12:03:15;;;;;;;13.48;2.97;;;;;;;12.27;81.52;102197.88;5014171;28;20461;-80
2021/11/17 12:05:46;;;;;;;16.25;3.00;;;;;;;12.22;81.65;102207.38;5014160;28;20022;-77
2021/11/17 12:08:27;;;;;;;15.15;2.90;;;;;;;12.30;81.11;102211.16;5014854;28;20045;-80
2021/11/17 12:11:04;;;;;;;14.80;3.00;;;;;;;12.40;81.96;102213.25;5012269;28;20022;-80
2021/11/17 12:13:55;;;;;;;16.75;2.80;;;;;;;12.08;83.25;102225.41;5017787;28;20033;-81
2021/11/17 12:16:40;;;;;;;19.17;3.20;;;;;;;11.78;85.53;102227.03;5013225;28;20064;-80
2021/11/17 12:19:28;;;;;;;14.00;3.17;;;;;;;11.73;86.06;102227.72;5011963;28;20212;-81
2021/11/17 12:22:01;;;;;;;17.70;3.35;;;;;;;11.81;86.07;102232.44;5015312;28;20544;-81
2021/11/17 12:24:38;;;;;;;19.90;3.25;;;;;;;11.96;85.78;102236.44;5016163;28;20038;-79
2021/11/17 12:27:12;;;;;;;20.67;2.70;;;;;;;12.08;85.33;102236.84;5016112;28;20042;-80
2021/11/17 12:29:40;;;;;;;18.58;3.25;;;;;;;12.20;84.18;102236.34;5013247;28;20033;-79
2021/11/17 12:32:15;;;;;;;19.98;3.38;;;;;;;12.37;83.03;102234.28;5014446;28;20034;-80
2021/11/17 12:34:44;;;;;;;15.90;3.15;;;;;;;12.54;82.60;102237.41;5013496;28;20060;-80
2021/11/17 12:37:09;;;;;;;21.85;3.53;;;;;;;12.41;82.58;102232.59;5014674;28;20160;-80
2021/11/17 12:39:48;;;;;;;19.35;3.45;;;;;;;12.12;82.01;102241.38;5015954;28;20061;-76
2021/11/17 12:42:21;;;;;;;19.40;2.80;;;;;;;11.91;82.66;102233.63;5012639;28;20067;-74
2021/11/17 12:44:49;;;;;;;14.00;2.70;;;;;;;11.72;82.69;102237.41;5014143;28;20022;-82
2021/11/17 12:47:20;;;;;;;18.25;3.03;;;;;;;11.60;82.94;102229.94;5013304;28;20639;-81
2021/11/17 12:49:58;;;;;;;24.00;4.15;;;;;;;12.03;80.80;102229.63;5014055;28;20034;-84
2021/11/17 12:52:41;;;;;;;22.00;3.30;;;;;;;12.21;79.68;102232.88;5014861;28;20029;-85
2021/11/17 12:55:07;;;;;;;24.73;3.25;;;;;;;12.36;78.93;102226.28;5015438;28;20033;-83
2021/11/17 12:57:40;;;;;;;22.92;4.03;;;;;;;12.21;79.05;102238.16;5015451;28;20486;-83
2021/11/17 13:00:12;;;;;;;;;;;;;;;12.05;78.26;102239.41;5013707;28;20079;-82
2021/11/17 13:02:55;;;;;;;13.40;2.22;;;;;;;12.00;79.65;102237.47;5012747;28;19914;-82
2021/11/17 13:05:29;;;;;;;17.20;3.08;;;;;;;12.02;79.31;102241.03;5011783;28;20030;-83
2021/11/17 13:07:58;;;;;;;;;;;;;;;11.94;78.65;102249.59;5014071;28;20462;-84
2021/11/17 13:10:48;;;;;;;16.92;2.60;;;;;;;11.87;78.55;102247.56;5014789;28;19972;-81
2021/11/17 13:13:19;;;;;;;15.80;2.72;;;;;;;12.05;78.07;102247.31;5008749;28;20026;-83
2021/11/17 13:15:48;;;;;;;13.02;2.80;;;;;;;12.23;75.78;102244.38;5015075;28;20101;-82
2021/11/17 13:18:35;;;;;;;22.42;3.67;;;;;;;12.21;75.64;102254.00;5015215;28;20493;-82
2021/11/17 13:21:22;;;;;;;21.45;4.22;;;;;;;12.03;75.96;102253.38;5015841;28;20382;-82
2021/11/17 13:24:05;;;;;;;18.98;2.92;;;;;;;11.80;77.69;102264.00;5014592;28;20026;-80
2021/11/17 13:26:37;;;;;;;15.10;2.67;;;;;;;11.74;77.99;102259.41;5010868;28;20140;-81
2021/11/17 13:29:26;;;;;;;23.83;3.05;;;;;;;11.85;77.26;102251.00;5013427;28;20116;-81
2021/11/17 13:32:00;;;;;;;20.73;2.53;;;;;;;12.20;76.84;102246.03;5010814;28;20061;-78
2021/11/17 13:34:35;;;;;;;16.33;2.90;;;;;;;12.45;75.10;102237.13;5024508;28;20040;-81
2021/11/17 13:37:18;;;;;;;11.88;2.47;;;;;;;12.46;74.06;102245.09;5032325;28;20045;-82
2021/11/17 13:39:45;;;;;;;14.30;2.60;;;;;;;12.63;74.00;102243.00;5016161;28;20042;-79
2021/11/17 13:42:10;;;;;;;21.88;3.28;;;;;;;12.90;73.51;102235.84;5011655;28;20445;-80
2021/11/17 13:44:36;;;;;;;20.08;2.78;;;;;;;13.01;71.53;102229.13;5012719;28;20029;-78
2021/11/17 13:47:12;;;;;;;17.38;2.63;;;;;;;13.23;71.38;102242.97;5012741;28;20382;-77
2021/11/17 13:49:42;;;;;;;15.10;3.28;;;;;;;13.40;71.49;102238.16;5013001;28;20473;-77
2021/11/17 13:52:08;;;;;;;17.23;3.10;;;;;;;13.50;69.97;102248.16;5013336;28;20033;-78
2021/11/17 13:54:34;;;;;;;13.70;2.50;;;;;;;13.70;69.90;102247.78;5013755;28;20038;-77
2021/11/17 13:57:02;;;;;;;17.25;2.85;;;;;;;13.89;69.42;102233.25;5012737;28;20085;-78
2021/11/17 13:59:27;;;;;;;20.48;3.20;;;;;;;13.99;68.30;102236.19;5011235;28;20041;-76
2021/11/17 14:01:56;;;;;;;19.02;3.00;;;;;;;14.16;68.02;102244.56;5012313;28;20029;-77
2021/11/17 14:04:21;;;;;;;16.33;2.63;;;;;;;14.09;67.14;102247.88;5012026;28;20492;-77
2021/11/17 14:06:50;;;;;;;15.38;2.90;;;;;;;14.08;67.07;102261.09;5012437;28;20037;-78
2021/11/17 14:09:15;;;;;;;13.52;2.55;;;;;;;13.71;68.36;102255.75;5011271;28;20398;-78
2021/11/17 14:11:40;;;;;;;13.20;2.53;;;;;;;13.42;69.78;102262.91;5011892;28;20033;-76
2021/11/17 14:14:06;;;;;;;15.25;2.63;;;;;;;13.42;70.67;102263.78;5013133;28;20028;-78
2021/11/17 14:16:31;;;;;;;15.52;3.00;;;;;;;13.53;70.17;102273.78;5012918;28;20106;-78
2021/11/17 14:18:57;;;;;;;16.48;3.08;;;;;;;13.50;70.73;102261.38;5013046;28;20104;-75